Arrantzale — EBVT — position and weather

sailwx.info

Track history (hours):
 
Tides and Currents Weather Stations Pressure Air Temp Water Temp Dewpoint Dewpoint Depression Visibility Wind Speed Wind Dir Waves Ship Positions

Arrantzale

Last reported at 2015-Mar-30 17:32 UTC. Time now 2015-Mar-30 23:01 UTC.
Position N 43°30' W 001°49'.

Length 32 m.

Type: Fishing. MMSI: 224065290.

Date/timePositionNaut miles runAvg speedWind from/ knotsBaromVisibWave heightAir tempDewpointWater temp
2015-Mar-30 17:32N 43°30' W 001°49'7 6.8
2015-Mar-30 16:34N 43°23' W 001°47'0 0.1
2015-Mar-30 15:33N 43°23' W 001°48'0 0.0
2015-Mar-30 08:33N 43°23' W 001°48'  
2015-Mar-27 15:17N 43°23' W 001°48'0 0.0
2015-Mar-27 14:33N 43°23' W 001°48'0 0.0
2015-Mar-27 13:33N 43°23' W 001°48'0 0.0
2015-Mar-27 12:33N 43°23' W 001°48'0 0.0
2015-Mar-27 11:33N 43°23' W 001°48'0 0.0
2015-Mar-27 10:33N 43°23' W 001°48'2 0.2
2015-Mar-26 23:33N 43°25' W 001°47'2 1.8
2015-Mar-26 22:33N 43°23' W 001°48'0 0.0
2015-Mar-26 21:33N 43°23' W 001°48'0 0.0
2015-Mar-26 20:33N 43°23' W 001°48'0 0.0
2015-Mar-26 19:33N 43°23' W 001°48'0 0.0
2015-Mar-26 18:33N 43°23' W 001°48'0 0.0
2015-Mar-26 17:34N 43°23' W 001°48'0 0.0
2015-Mar-26 16:33N 43°23' W 001°48'0 0.0
2015-Mar-26 15:33N 43°23' W 001°48'0 0.0
2015-Mar-26 11:18N 43°23' W 001°48'0 0.0
2015-Mar-26 10:33N 43°23' W 001°48'0 0.0
2015-Mar-26 09:33N 43°23' W 001°48'0 0.0
2015-Mar-26 08:33N 43°23' W 001°48'10 8.6
2015-Mar-26 07:22N 43°33' W 001°47'5 1.0
2015-Mar-26 02:31N 43°29' W 001°49'6 5.8
2015-Mar-26 01:33N 43°23' W 001°47'0 0.0
2015-Mar-26 00:33N 43°23' W 001°47'0 0.0
2015-Mar-25 23:33N 43°23' W 001°47'0 0.0
2015-Mar-25 22:33N 43°23' W 001°47'0 0.0
2015-Mar-25 21:33N 43°23' W 001°47'0 0.0
2015-Mar-25 20:33N 43°23' W 001°47'0 0.0
2015-Mar-25 19:33N 43°23' W 001°47'0 0.0
2015-Mar-25 12:09N 43°23' W 001°47'0 0.0
2015-Mar-25 11:33N 43°23' W 001°47'0 0.0
2015-Mar-25 10:34N 43°23' W 001°47'0 0.0
2015-Mar-25 09:33N 43°23' W 001°47'0 0.0
2015-Mar-25 08:29N 43°23' W 001°47'0 0.0
2015-Mar-24 08:06N 43°23' W 001°47'0 0.0
2015-Mar-24 07:33N 43°23' W 001°47'29 2.8
2015-Mar-23 21:15N 43°52' W 001°45'1 1.5
2015-Mar-23 20:33N 43°51' W 001°45'0 0.1
2015-Mar-23 19:33N 43°51' W 001°45'26 2.9
2015-Mar-23 10:33N 43°25' W 001°48'2 1.7
2015-Mar-23 09:33N 43°23' W 001°47'0 0.0
2015-Mar-23 08:33N 43°23' W 001°47'  
Track history (hours):
 
Tides and Currents Weather Stations Pressure Air Temp Water Temp Dewpoint Dewpoint Depression Visibility Wind Speed Wind Dir Waves Ship Positions

Arrantzale

Last reported at 2015-Mar-30 17:32 UTC. Time now 2015-Mar-30 23:01 UTC.
Position N 43°30' W 001°49'.

Length 32 m.

Type: Fishing. MMSI: 224065290.

Date/timePositionNaut miles runAvg speedWind from/ knotsBaromVisibWave heightAir tempDewpointWater temp
2015-Mar-30 17:32N 43°30' W 001°49'7 6.8
2015-Mar-30 16:34N 43°23' W 001°47'0 0.1
2015-Mar-30 15:33N 43°23' W 001°48'0 0.0
2015-Mar-30 08:33N 43°23' W 001°48'  
2015-Mar-27 15:17N 43°23' W 001°48'0 0.0
2015-Mar-27 14:33N 43°23' W 001°48'0 0.0
2015-Mar-27 13:33N 43°23' W 001°48'0 0.0
2015-Mar-27 12:33N 43°23' W 001°48'0 0.0
2015-Mar-27 11:33N 43°23' W 001°48'0 0.0
2015-Mar-27 10:33N 43°23' W 001°48'2 0.2
2015-Mar-26 23:33N 43°25' W 001°47'2 1.8
2015-Mar-26 22:33N 43°23' W 001°48'0 0.0
2015-Mar-26 21:33N 43°23' W 001°48'0 0.0
2015-Mar-26 20:33N 43°23' W 001°48'0 0.0
2015-Mar-26 19:33N 43°23' W 001°48'0 0.0
2015-Mar-26 18:33N 43°23' W 001°48'0 0.0
2015-Mar-26 17:34N 43°23' W 001°48'0 0.0
2015-Mar-26 16:33N 43°23' W 001°48'0 0.0
2015-Mar-26 15:33N 43°23' W 001°48'0 0.0
2015-Mar-26 11:18N 43°23' W 001°48'0 0.0
2015-Mar-26 10:33N 43°23' W 001°48'0 0.0
2015-Mar-26 09:33N 43°23' W 001°48'0 0.0
2015-Mar-26 08:33N 43°23' W 001°48'10 8.6
2015-Mar-26 07:22N 43°33' W 001°47'5 1.0
2015-Mar-26 02:31N 43°29' W 001°49'6 5.8
2015-Mar-26 01:33N 43°23' W 001°47'0 0.0
2015-Mar-26 00:33N 43°23' W 001°47'0 0.0
2015-Mar-25 23:33N 43°23' W 001°47'0 0.0
2015-Mar-25 22:33N 43°23' W 001°47'0 0.0
2015-Mar-25 21:33N 43°23' W 001°47'0 0.0
2015-Mar-25 20:33N 43°23' W 001°47'0 0.0
2015-Mar-25 19:33N 43°23' W 001°47'0 0.0
2015-Mar-25 12:09N 43°23' W 001°47'0 0.0
2015-Mar-25 11:33N 43°23' W 001°47'0 0.0
2015-Mar-25 10:34N 43°23' W 001°47'0 0.0
2015-Mar-25 09:33N 43°23' W 001°47'0 0.0
2015-Mar-25 08:29N 43°23' W 001°47'0 0.0
2015-Mar-24 08:06N 43°23' W 001°47'0 0.0
2015-Mar-24 07:33N 43°23' W 001°47'29 2.8
2015-Mar-23 21:15N 43°52' W 001°45'1 1.5
2015-Mar-23 20:33N 43°51' W 001°45'0 0.1
2015-Mar-23 19:33N 43°51' W 001°45'26 2.9
2015-Mar-23 10:33N 43°25' W 001°48'2 1.7
2015-Mar-23 09:33N 43°23' W 001°47'0 0.0
2015-Mar-23 08:33N 43°23' W 001°47'  

Dump ship's entire track history